AEE160 LGAV-LGIO
Flight info
| Callsign | AEE160 |
|---|---|
| Flight time | N/A |
| Altitude | 24000 |
| Route | KOR L53 GARTA V60 IBTIN |
| Aircraft | A321/M-SDE3FGHIRWY/LB1 |
Departure
| Time | N/A |
|---|---|
| Airport | Athens Eleftherios Venizelos International Airport (LGAV) |
Arrival
| Time | 2026-04-12 11:31 |
|---|---|
| Airport | Ioannina King Pyrrhus National Airport (LGIO) |
| Time | Latitude | Longitude | Altitude | Speed | Heading |
|---|---|---|---|---|---|
| 2026-04-12 11:17 | 38.94061 | 21.20425 | 18242 ft | 365 kts | 287° |
| 2026-04-12 11:17 | 38.94661 | 21.17262 | 17757 ft | 363 kts | 287° |
| 2026-04-12 11:17 | 38.95254 | 21.14125 | 17307 ft | 361 kts | 287° |
| 2026-04-12 11:18 | 38.95841 | 21.11000 | 16854 ft | 359 kts | 286° |
| 2026-04-12 11:18 | 38.96420 | 21.07899 | 16400 ft | 356 kts | 286° |
| 2026-04-12 11:18 | 38.96996 | 21.04817 | 15943 ft | 353 kts | 287° |
| 2026-04-12 11:18 | 38.97829 | 21.01893 | 15475 ft | 346 kts | 300° |
| 2026-04-12 11:19 | 38.99190 | 20.99388 | 15023 ft | 341 kts | 314° |
| 2026-04-12 11:19 | 39.00973 | 20.97423 | 14500 ft | 337 kts | 327° |
| 2026-04-12 11:19 | 39.03064 | 20.96094 | 13999 ft | 335 kts | 340° |
| 2026-04-12 11:19 | 39.05333 | 20.95441 | 13436 ft | 334 kts | 349° |
| 2026-04-12 11:20 | 39.07626 | 20.94988 | 12912 ft | 333 kts | 349° |
| 2026-04-12 11:20 | 39.09910 | 20.94527 | 12295 ft | 332 kts | 349° |
| 2026-04-12 11:20 | 39.12183 | 20.94063 | 11762 ft | 329 kts | 349° |
| 2026-04-12 11:20 | 39.14439 | 20.93598 | 11264 ft | 327 kts | 349° |
| 2026-04-12 11:21 | 39.16663 | 20.93136 | 10917 ft | 318 kts | 349° |
| 2026-04-12 11:21 | 39.18769 | 20.92702 | 10805 ft | 303 kts | 349° |
| 2026-04-12 11:21 | 39.20804 | 20.92283 | 10684 ft | 290 kts | 349° |
| 2026-04-12 11:21 | 39.22758 | 20.91880 | 10473 ft | 281 kts | 349° |
| 2026-04-12 11:22 | 39.24657 | 20.91491 | 10338 ft | 274 kts | 350° |
| 2026-04-12 11:22 | 39.26551 | 20.91104 | 10281 ft | 276 kts | 349° |
| 2026-04-12 11:22 | 39.28450 | 20.90714 | 10185 ft | 276 kts | 350° |
| 2026-04-12 11:22 | 39.30345 | 20.90323 | 10060 ft | 276 kts | 350° |
| 2026-04-12 11:23 | 39.32230 | 20.89935 | 9833 ft | 273 kts | 350° |
| 2026-04-12 11:23 | 39.34133 | 20.89537 | 9245 ft | 269 kts | 350° |
| 2026-04-12 11:23 | 39.35917 | 20.89159 | 8782 ft | 257 kts | 350° |
| 2026-04-12 11:23 | 39.37646 | 20.88792 | 8347 ft | 246 kts | 350° |
| 2026-04-12 11:24 | 39.39305 | 20.88442 | 7950 ft | 237 kts | 350° |
| 2026-04-12 11:24 | 39.40897 | 20.88104 | 7621 ft | 227 kts | 351° |
| 2026-04-12 11:24 | 39.42423 | 20.87826 | 7590 ft | 218 kts | 358° |
| 2026-04-12 11:24 | 39.43879 | 20.88001 | 7581 ft | 204 kts | 13° |
| 2026-04-12 11:25 | 39.45199 | 20.88657 | 7283 ft | 204 kts | 29° |
| 2026-04-12 11:25 | 39.46426 | 20.89553 | 7001 ft | 199 kts | 29° |
| 2026-04-12 11:25 | 39.47599 | 20.90395 | 6721 ft | 189 kts | 29° |
| 2026-04-12 11:25 | 39.48736 | 20.91209 | 6460 ft | 186 kts | 29° |
| 2026-04-12 11:26 | 39.49939 | 20.91820 | 6195 ft | 187 kts | 15° |
| 2026-04-12 11:26 | 39.51220 | 20.92126 | 5895 ft | 187 kts | 11° |
| 2026-04-12 11:26 | 39.52501 | 20.92422 | 5609 ft | 187 kts | 11° |
| 2026-04-12 11:26 | 39.53790 | 20.92719 | 5316 ft | 188 kts | 10° |
| 2026-04-12 11:27 | 39.55088 | 20.92841 | 5040 ft | 187 kts | 358° |
| 2026-04-12 11:27 | 39.56390 | 20.92818 | 4783 ft | 186 kts | 359° |
| 2026-04-12 11:27 | 39.57694 | 20.92804 | 4520 ft | 188 kts | 359° |
| 2026-04-12 11:27 | 39.58998 | 20.92654 | 4256 ft | 188 kts | 344° |
| 2026-04-12 11:28 | 39.60179 | 20.91958 | 3989 ft | 185 kts | 323° |
| 2026-04-12 11:28 | 39.61184 | 20.90928 | 3716 ft | 184 kts | 318° |
| 2026-04-12 11:28 | 39.62176 | 20.89913 | 3440 ft | 178 kts | 319° |
| 2026-04-12 11:28 | 39.63118 | 20.88953 | 3175 ft | 166 kts | 320° |
| 2026-04-12 11:29 | 39.64003 | 20.88052 | 2947 ft | 158 kts | 321° |
| 2026-04-12 11:29 | 39.64852 | 20.87184 | 2715 ft | 154 kts | 320° |
| 2026-04-12 11:29 | 39.65685 | 20.86333 | 2502 ft | 152 kts | 321° |
| 2026-04-12 11:29 | 39.66513 | 20.85489 | 2275 ft | 151 kts | 320° |
| 2026-04-12 11:30 | 39.67335 | 20.84648 | 2058 ft | 150 kts | 321° |
| 2026-04-12 11:30 | 39.68149 | 20.83809 | 1821 ft | 149 kts | 321° |
| 2026-04-12 11:30 | 39.68961 | 20.82983 | 1623 ft | 148 kts | 322° |
| 2026-04-12 11:30 | 39.69711 | 20.82213 | 1566 ft | 112 kts | 322° |
| 2026-04-12 11:31 | 39.70174 | 20.81740 | 1564 ft | 71 kts | 322° |
| 2026-04-12 11:31 | 39.70454 | 20.81451 | 1565 ft | 33 kts | 323° |
| 2026-04-12 11:31 | 39.70531 | 20.81344 | 1565 ft | 10 kts | 294° |
| 2026-04-12 11:31 | 39.70557 | 20.81337 | 1565 ft | 4 kts | 54° |
| 2026-04-12 11:32 | 39.70535 | 20.81374 | 1565 ft | 8 kts | 143° |
| 2026-04-12 11:32 | 39.70475 | 20.81433 | 1565 ft | 12 kts | 142° |
| 2026-04-12 11:32 | 39.70400 | 20.81509 | 1564 ft | 15 kts | 142° |
| 2026-04-12 11:32 | 39.70313 | 20.81598 | 1564 ft | 18 kts | 141° |
| 2026-04-12 11:33 | 39.70212 | 20.81702 | 1564 ft | 19 kts | 141° |
| 2026-04-12 11:33 | 39.70107 | 20.81810 | 1566 ft | 20 kts | 142° |
| 2026-04-12 11:33 | 39.70007 | 20.81913 | 1567 ft | 17 kts | 140° |
| 2026-04-12 11:33 | 39.69911 | 20.81950 | 1567 ft | 14 kts | 205° |
| 2026-04-12 11:34 | 39.69837 | 20.81870 | 1565 ft | 14 kts | 201° |
| 2026-04-12 11:34 | 39.69750 | 20.81913 | 1565 ft | 14 kts | 144° |
| 2026-04-12 11:34 | 39.69665 | 20.81996 | 1565 ft | 17 kts | 142° |
| 2026-04-12 11:34 | 39.69579 | 20.82085 | 1565 ft | 14 kts | 142° |
| 2026-04-12 11:35 | 39.69507 | 20.82163 | 1565 ft | 14 kts | 141° |
| 2026-04-12 11:35 | 39.69439 | 20.82250 | 1565 ft | 14 kts | 122° |
| 2026-04-12 11:35 | 39.69393 | 20.82356 | 1565 ft | 12 kts | 134° |
| 2026-04-12 11:35 | 39.69344 | 20.82357 | 1565 ft | 6 kts | 218° |
| 2026-04-12 11:36 | 39.69321 | 20.82327 | 1565 ft | 2 kts | 226° |
| 2026-04-12 11:36 | 39.69320 | 20.82325 | 1565 ft | 0 kts | 226° |